sensor_id;sensor_type;location;lat;lon;timestamp;P1;durP1;ratioP1;P2;durP2;ratioP2
28335;SDS011;15592;53.656;7.276;2023-03-11T00:00:59;9.68;;;2.00;;
28335;SDS011;15592;53.656;7.276;2023-03-11T00:03:25;10.18;;;1.73;;
28335;SDS011;15592;53.656;7.276;2023-03-11T00:05:53;9.77;;;1.85;;
28335;SDS011;15592;53.656;7.276;2023-03-11T00:08:21;11.18;;;2.42;;
28335;SDS011;15592;53.656;7.276;2023-03-11T00:10:50;7.47;;;1.90;;
28335;SDS011;15592;53.656;7.276;2023-03-11T00:13:17;9.80;;;1.90;;
28335;SDS011;15592;53.656;7.276;2023-03-11T00:15:47;9.25;;;2.15;;
28335;SDS011;15592;53.656;7.276;2023-03-11T00:18:14;4.95;;;1.23;;
28335;SDS011;15592;53.656;7.276;2023-03-11T00:20:41;8.38;;;2.00;;
28335;SDS011;15592;53.656;7.276;2023-03-11T00:23:10;7.40;;;1.85;;
28335;SDS011;15592;53.656;7.276;2023-03-11T00:25:37;12.32;;;2.15;;
28335;SDS011;15592;53.656;7.276;2023-03-11T00:28:03;10.13;;;1.77;;
28335;SDS011;15592;53.656;7.276;2023-03-11T00:30:31;9.27;;;1.85;;
28335;SDS011;15592;53.656;7.276;2023-03-11T00:32:57;5.97;;;1.92;;
28335;SDS011;15592;53.656;7.276;2023-03-11T00:35:25;10.80;;;2.28;;
28335;SDS011;15592;53.656;7.276;2023-03-11T00:37:56;11.95;;;1.60;;
28335;SDS011;15592;53.656;7.276;2023-03-11T00:40:24;6.57;;;1.30;;
28335;SDS011;15592;53.656;7.276;2023-03-11T00:42:51;13.32;;;2.35;;
28335;SDS011;15592;53.656;7.276;2023-03-11T00:45:17;12.20;;;2.13;;
28335;SDS011;15592;53.656;7.276;2023-03-11T00:47:43;10.38;;;1.70;;
28335;SDS011;15592;53.656;7.276;2023-03-11T00:50:09;8.55;;;1.48;;
28335;SDS011;15592;53.656;7.276;2023-03-11T00:52:46;9.18;;;2.55;;
28335;SDS011;15592;53.656;7.276;2023-03-11T00:55:14;6.88;;;1.92;;
28335;SDS011;15592;53.656;7.276;2023-03-11T00:57:42;6.93;;;1.50;;
28335;SDS011;15592;53.656;7.276;2023-03-11T01:00:11;9.43;;;1.38;;
28335;SDS011;15592;53.656;7.276;2023-03-11T01:02:39;5.72;;;1.65;;
28335;SDS011;15592;53.656;7.276;2023-03-11T01:05:05;12.20;;;1.90;;
28335;SDS011;15592;53.656;7.276;2023-03-11T01:07:30;18.52;;;2.25;;
28335;SDS011;15592;53.656;7.276;2023-03-11T01:09:57;10.90;;;2.08;;
28335;SDS011;15592;53.656;7.276;2023-03-11T01:12:23;7.90;;;1.95;;
28335;SDS011;15592;53.656;7.276;2023-03-11T01:14:49;5.32;;;1.30;;
28335;SDS011;15592;53.656;7.276;2023-03-11T01:17:14;9.98;;;1.95;;
28335;SDS011;15592;53.656;7.276;2023-03-11T01:19:40;10.27;;;1.70;;
28335;SDS011;15592;53.656;7.276;2023-03-11T01:22:06;10.15;;;1.38;;
28335;SDS011;15592;53.656;7.276;2023-03-11T01:24:31;7.82;;;1.58;;
28335;SDS011;15592;53.656;7.276;2023-03-11T01:26:57;9.45;;;1.63;;
28335;SDS011;15592;53.656;7.276;2023-03-11T01:29:22;9.13;;;1.33;;
28335;SDS011;15592;53.656;7.276;2023-03-11T01:31:48;8.10;;;1.38;;
28335;SDS011;15592;53.656;7.276;2023-03-11T01:34:13;5.50;;;1.40;;
28335;SDS011;15592;53.656;7.276;2023-03-11T01:36:39;10.27;;;2.75;;
28335;SDS011;15592;53.656;7.276;2023-03-11T01:39:05;8.20;;;1.60;;
28335;SDS011;15592;53.656;7.276;2023-03-11T01:41:30;7.10;;;1.25;;
28335;SDS011;15592;53.656;7.276;2023-03-11T01:43:56;7.68;;;1.77;;
28335;SDS011;15592;53.656;7.276;2023-03-11T01:46:23;3.88;;;1.30;;
28335;SDS011;15592;53.656;7.276;2023-03-11T01:48:58;4.82;;;1.05;;
28335;SDS011;15592;53.656;7.276;2023-03-11T01:53:56;6.50;;;1.40;;
28335;SDS011;15592;53.656;7.276;2023-03-11T01:56:25;8.05;;;1.50;;
28335;SDS011;15592;53.656;7.276;2023-03-11T01:58:52;8.25;;;1.65;;
28335;SDS011;15592;53.656;7.276;2023-03-11T02:01:19;7.38;;;1.48;;
28335;SDS011;15592;53.656;7.276;2023-03-11T02:03:46;10.00;;;1.50;;
28335;SDS011;15592;53.656;7.276;2023-03-11T02:06:13;8.30;;;1.25;;
28335;SDS011;15592;53.656;7.276;2023-03-11T02:08:41;11.95;;;1.40;;
28335;SDS011;15592;53.656;7.276;2023-03-11T02:11:09;5.07;;;1.30;;
28335;SDS011;15592;53.656;7.276;2023-03-11T02:16:04;10.88;;;1.40;;
28335;SDS011;15592;53.656;7.276;2023-03-11T02:18:31;9.27;;;1.83;;
28335;SDS011;15592;53.656;7.276;2023-03-11T02:21:15;5.15;;;1.45;;
28335;SDS011;15592;53.656;7.276;2023-03-11T02:29:25;7.28;;;1.30;;
28335;SDS011;15592;53.656;7.276;2023-03-11T02:31:52;11.20;;;1.73;;
28335;SDS011;15592;53.656;7.276;2023-03-11T02:34:27;6.45;;;1.45;;
28335;SDS011;15592;53.656;7.276;2023-03-11T02:36:57;5.63;;;1.20;;
28335;SDS011;15592;53.656;7.276;2023-03-11T02:39:30;5.95;;;1.08;;
28335;SDS011;15592;53.656;7.276;2023-03-11T02:41:56;6.50;;;1.30;;
28335;SDS011;15592;53.656;7.276;2023-03-11T02:44:23;8.38;;;1.88;;
28335;SDS011;15592;53.656;7.276;2023-03-11T02:46:49;4.97;;;0.90;;
28335;SDS011;15592;53.656;7.276;2023-03-11T02:49:16;6.88;;;1.48;;
28335;SDS011;15592;53.656;7.276;2023-03-11T02:51:42;6.30;;;1.45;;
28335;SDS011;15592;53.656;7.276;2023-03-11T02:54:08;2.88;;;1.23;;
28335;SDS011;15592;53.656;7.276;2023-03-11T02:56:33;8.52;;;1.15;;
28335;SDS011;15592;53.656;7.276;2023-03-11T02:58:59;6.45;;;1.50;;
28335;SDS011;15592;53.656;7.276;2023-03-11T03:01:25;8.70;;;1.23;;
28335;SDS011;15592;53.656;7.276;2023-03-11T03:03:50;8.60;;;1.45;;
28335;SDS011;15592;53.656;7.276;2023-03-11T03:06:16;11.07;;;1.58;;
28335;SDS011;15592;53.656;7.276;2023-03-11T03:08:41;4.80;;;1.27;;
28335;SDS011;15592;53.656;7.276;2023-03-11T03:11:07;6.18;;;1.48;;
28335;SDS011;15592;53.656;7.276;2023-03-11T03:13:33;4.85;;;1.20;;
28335;SDS011;15592;53.656;7.276;2023-03-11T03:16:00;10.00;;;1.10;;
28335;SDS011;15592;53.656;7.276;2023-03-11T03:18:26;11.45;;;1.58;;
28335;SDS011;15592;53.656;7.276;2023-03-11T03:20:52;7.18;;;1.25;;
28335;SDS011;15592;53.656;7.276;2023-03-11T03:23:18;6.07;;;1.17;;
28335;SDS011;15592;53.656;7.276;2023-03-11T03:25:44;8.05;;;1.80;;
28335;SDS011;15592;53.656;7.276;2023-03-11T03:28:10;7.97;;;1.40;;
28335;SDS011;15592;53.656;7.276;2023-03-11T03:30:36;2.15;;;0.80;;
28335;SDS011;15592;53.656;7.276;2023-03-11T03:33:02;6.45;;;1.30;;
28335;SDS011;15592;53.656;7.276;2023-03-11T03:35:28;7.00;;;1.25;;
28335;SDS011;15592;53.656;7.276;2023-03-11T03:37:53;7.22;;;1.73;;
28335;SDS011;15592;53.656;7.276;2023-03-11T03:40:19;5.63;;;1.30;;
28335;SDS011;15592;53.656;7.276;2023-03-11T03:42:45;8.30;;;1.30;;
28335;SDS011;15592;53.656;7.276;2023-03-11T03:45:11;4.40;;;1.50;;
28335;SDS011;15592;53.656;7.276;2023-03-11T03:47:36;6.20;;;1.30;;
28335;SDS011;15592;53.656;7.276;2023-03-11T03:50:03;8.50;;;1.45;;
28335;SDS011;15592;53.656;7.276;2023-03-11T03:52:31;8.98;;;1.40;;
28335;SDS011;15592;53.656;7.276;2023-03-11T03:54:57;6.47;;;1.15;;
28335;SDS011;15592;53.656;7.276;2023-03-11T03:57:22;9.25;;;1.60;;
28335;SDS011;15592;53.656;7.276;2023-03-11T03:59:48;4.65;;;1.40;;
28335;SDS011;15592;53.656;7.276;2023-03-11T04:02:13;6.68;;;1.85;;
28335;SDS011;15592;53.656;7.276;2023-03-11T04:04:39;9.77;;;1.90;;
28335;SDS011;15592;53.656;7.276;2023-03-11T04:07:04;9.80;;;1.30;;
28335;SDS011;15592;53.656;7.276;2023-03-11T04:09:31;7.70;;;1.88;;
28335;SDS011;15592;53.656;7.276;2023-03-11T04:11:57;9.95;;;1.60;;
28335;SDS011;15592;53.656;7.276;2023-03-11T04:14:24;6.65;;;1.48;;
28335;SDS011;15592;53.656;7.276;2023-03-11T04:16:49;7.13;;;1.25;;
28335;SDS011;15592;53.656;7.276;2023-03-11T04:19:15;5.05;;;1.13;;
28335;SDS011;15592;53.656;7.276;2023-03-11T04:21:41;10.93;;;2.22;;
28335;SDS011;15592;53.656;7.276;2023-03-11T04:24:07;14.15;;;1.67;;
28335;SDS011;15592;53.656;7.276;2023-03-11T04:26:33;6.88;;;1.38;;
28335;SDS011;15592;53.656;7.276;2023-03-11T04:28:58;12.45;;;1.42;;
28335;SDS011;15592;53.656;7.276;2023-03-11T04:31:24;8.73;;;1.33;;
28335;SDS011;15592;53.656;7.276;2023-03-11T04:33:50;9.00;;;1.63;;
28335;SDS011;15592;53.656;7.276;2023-03-11T04:36:15;7.60;;;1.60;;
28335;SDS011;15592;53.656;7.276;2023-03-11T04:38:41;16.30;;;1.80;;
28335;SDS011;15592;53.656;7.276;2023-03-11T04:41:06;5.28;;;1.50;;
28335;SDS011;15592;53.656;7.276;2023-03-11T04:43:32;5.18;;;1.25;;
28335;SDS011;15592;53.656;7.276;2023-03-11T04:45:58;10.15;;;1.70;;
28335;SDS011;15592;53.656;7.276;2023-03-11T04:48:24;6.65;;;1.40;;
28335;SDS011;15592;53.656;7.276;2023-03-11T04:50:51;9.95;;;1.52;;
28335;SDS011;15592;53.656;7.276;2023-03-11T04:53:16;8.52;;;1.27;;
28335;SDS011;15592;53.656;7.276;2023-03-11T04:55:42;11.65;;;1.77;;
28335;SDS011;15592;53.656;7.276;2023-03-11T04:58:08;6.50;;;1.52;;
28335;SDS011;15592;53.656;7.276;2023-03-11T05:00:34;5.72;;;1.52;;
28335;SDS011;15592;53.656;7.276;2023-03-11T05:02:59;7.50;;;1.88;;
28335;SDS011;15592;53.656;7.276;2023-03-11T05:05:25;6.43;;;1.33;;
28335;SDS011;15592;53.656;7.276;2023-03-11T05:07:51;9.15;;;1.77;;
28335;SDS011;15592;53.656;7.276;2023-03-11T05:10:16;5.90;;;1.40;;
28335;SDS011;15592;53.656;7.276;2023-03-11T05:12:46;2.50;;;0.95;;
28335;SDS011;15592;53.656;7.276;2023-03-11T05:15:13;8.50;;;1.35;;
28335;SDS011;15592;53.656;7.276;2023-03-11T05:17:38;8.88;;;1.50;;
28335;SDS011;15592;53.656;7.276;2023-03-11T05:20:04;7.22;;;1.65;;
28335;SDS011;15592;53.656;7.276;2023-03-11T05:22:32;7.00;;;1.30;;
28335;SDS011;15592;53.656;7.276;2023-03-11T05:24:58;5.45;;;1.40;;
28335;SDS011;15592;53.656;7.276;2023-03-11T05:27:23;7.80;;;1.30;;
28335;SDS011;15592;53.656;7.276;2023-03-11T05:29:49;6.47;;;1.48;;
28335;SDS011;15592;53.656;7.276;2023-03-11T05:32:15;9.20;;;1.50;;
28335;SDS011;15592;53.656;7.276;2023-03-11T05:34:40;4.22;;;1.15;;
28335;SDS011;15592;53.656;7.276;2023-03-11T05:37:06;7.32;;;1.30;;
28335;SDS011;15592;53.656;7.276;2023-03-11T05:39:32;4.90;;;1.30;;
28335;SDS011;15592;53.656;7.276;2023-03-11T05:41:58;13.02;;;2.13;;
28335;SDS011;15592;53.656;7.276;2023-03-11T05:44:24;5.65;;;1.50;;
28335;SDS011;15592;53.656;7.276;2023-03-11T05:46:49;9.20;;;1.50;;
28335;SDS011;15592;53.656;7.276;2023-03-11T05:49:15;3.83;;;1.25;;
28335;SDS011;15592;53.656;7.276;2023-03-11T05:51:41;3.50;;;1.00;;
28335;SDS011;15592;53.656;7.276;2023-03-11T05:54:06;5.32;;;1.10;;
28335;SDS011;15592;53.656;7.276;2023-03-11T05:56:39;4.93;;;1.20;;
28335;SDS011;15592;53.656;7.276;2023-03-11T05:59:05;5.15;;;1.20;;
28335;SDS011;15592;53.656;7.276;2023-03-11T06:01:31;5.80;;;1.20;;
28335;SDS011;15592;53.656;7.276;2023-03-11T06:03:57;10.82;;;2.58;;
28335;SDS011;15592;53.656;7.276;2023-03-11T06:06:23;6.72;;;1.08;;
28335;SDS011;15592;53.656;7.276;2023-03-11T06:08:49;9.63;;;1.50;;
28335;SDS011;15592;53.656;7.276;2023-03-11T06:11:15;7.05;;;1.20;;
28335;SDS011;15592;53.656;7.276;2023-03-11T06:13:41;5.88;;;1.67;;
28335;SDS011;15592;53.656;7.276;2023-03-11T06:16:07;5.60;;;1.15;;
28335;SDS011;15592;53.656;7.276;2023-03-11T06:18:33;4.82;;;1.20;;
28335;SDS011;15592;53.656;7.276;2023-03-11T06:20:59;7.55;;;1.10;;
28335;SDS011;15592;53.656;7.276;2023-03-11T06:23:26;5.85;;;1.60;;
28335;SDS011;15592;53.656;7.276;2023-03-11T06:25:57;6.18;;;1.30;;
28335;SDS011;15592;53.656;7.276;2023-03-11T06:28:24;7.90;;;0.90;;
28335;SDS011;15592;53.656;7.276;2023-03-11T06:30:50;5.00;;;1.00;;
28335;SDS011;15592;53.656;7.276;2023-03-11T06:33:15;2.75;;;0.90;;
28335;SDS011;15592;53.656;7.276;2023-03-11T06:35:41;1.98;;;0.80;;
28335;SDS011;15592;53.656;7.276;2023-03-11T06:38:06;3.70;;;0.90;;
28335;SDS011;15592;53.656;7.276;2023-03-11T06:40:33;4.95;;;0.90;;
28335;SDS011;15592;53.656;7.276;2023-03-11T06:42:58;5.13;;;1.10;;
28335;SDS011;15592;53.656;7.276;2023-03-11T06:45:24;5.25;;;1.10;;
28335;SDS011;15592;53.656;7.276;2023-03-11T06:47:49;4.57;;;1.10;;
28335;SDS011;15592;53.656;7.276;2023-03-11T06:50:15;4.45;;;1.08;;
28335;SDS011;15592;53.656;7.276;2023-03-11T06:52:41;3.03;;;1.23;;
28335;SDS011;15592;53.656;7.276;2023-03-11T06:55:07;1.33;;;0.65;;
28335;SDS011;15592;53.656;7.276;2023-03-11T06:57:33;6.10;;;1.13;;
28335;SDS011;15592;53.656;7.276;2023-03-11T06:59:59;4.00;;;0.90;;
28335;SDS011;15592;53.656;7.276;2023-03-11T07:02:24;4.30;;;0.88;;
28335;SDS011;15592;53.656;7.276;2023-03-11T07:04:50;3.97;;;0.70;;
28335;SDS011;15592;53.656;7.276;2023-03-11T07:07:16;2.85;;;0.80;;
28335;SDS011;15592;53.656;7.276;2023-03-11T07:09:42;1.67;;;0.60;;
28335;SDS011;15592;53.656;7.276;2023-03-11T07:12:08;0.57;;;0.38;;
28335;SDS011;15592;53.656;7.276;2023-03-11T07:14:33;0.75;;;0.55;;
28335;SDS011;15592;53.656;7.276;2023-03-11T07:16:59;1.42;;;0.47;;
28335;SDS011;15592;53.656;7.276;2023-03-11T07:19:25;1.55;;;0.80;;
28335;SDS011;15592;53.656;7.276;2023-03-11T07:21:50;1.75;;;0.60;;
28335;SDS011;15592;53.656;7.276;2023-03-11T07:24:16;3.88;;;0.85;;
28335;SDS011;15592;53.656;7.276;2023-03-11T07:26:42;1.67;;;0.50;;
28335;SDS011;15592;53.656;7.276;2023-03-11T07:29:08;1.55;;;0.80;;
28335;SDS011;15592;53.656;7.276;2023-03-11T07:31:34;1.75;;;0.57;;
28335;SDS011;15592;53.656;7.276;2023-03-11T07:34:01;1.50;;;0.70;;
28335;SDS011;15592;53.656;7.276;2023-03-11T07:36:29;1.63;;;0.63;;
28335;SDS011;15592;53.656;7.276;2023-03-11T07:38:59;2.10;;;0.60;;
28335;SDS011;15592;53.656;7.276;2023-03-11T07:41:28;1.38;;;0.60;;
28335;SDS011;15592;53.656;7.276;2023-03-11T07:43:56;0.88;;;0.55;;
28335;SDS011;15592;53.656;7.276;2023-03-11T07:46:24;1.63;;;0.50;;
28335;SDS011;15592;53.656;7.276;2023-03-11T07:48:50;2.60;;;0.60;;
28335;SDS011;15592;53.656;7.276;2023-03-11T07:51:18;1.67;;;0.50;;
28335;SDS011;15592;53.656;7.276;2023-03-11T07:53:45;1.50;;;0.50;;
28335;SDS011;15592;53.656;7.276;2023-03-11T07:56:13;2.03;;;0.52;;
28335;SDS011;15592;53.656;7.276;2023-03-11T07:58:39;1.35;;;0.55;;
28335;SDS011;15592;53.656;7.276;2023-03-11T08:01:13;3.35;;;0.70;;
28335;SDS011;15592;53.656;7.276;2023-03-11T08:03:41;1.17;;;0.50;;
28335;SDS011;15592;53.656;7.276;2023-03-11T08:08:38;1.55;;;0.60;;
28335;SDS011;15592;53.656;7.276;2023-03-11T08:11:03;1.02;;;0.50;;
28335;SDS011;15592;53.656;7.276;2023-03-11T08:13:29;1.25;;;0.40;;
28335;SDS011;15592;53.656;7.276;2023-03-11T08:15:55;0.50;;;0.40;;
28335;SDS011;15592;53.656;7.276;2023-03-11T08:18:20;0.32;;;0.30;;
28335;SDS011;15592;53.656;7.276;2023-03-11T08:20:46;0.40;;;0.28;;
28335;SDS011;15592;53.656;7.276;2023-03-11T08:23:11;0.65;;;0.25;;
28335;SDS011;15592;53.656;7.276;2023-03-11T08:25:37;0.55;;;0.25;;
28335;SDS011;15592;53.656;7.276;2023-03-11T08:28:03;1.13;;;0.38;;
28335;SDS011;15592;53.656;7.276;2023-03-11T08:30:31;0.10;;;0.10;;
28335;SDS011;15592;53.656;7.276;2023-03-11T08:32:57;0.40;;;0.38;;
28335;SDS011;15592;53.656;7.276;2023-03-11T08:35:23;1.50;;;0.40;;
28335;SDS011;15592;53.656;7.276;2023-03-11T08:37:50;1.17;;;0.32;;
28335;SDS011;15592;53.656;7.276;2023-03-11T08:40:15;0.70;;;0.30;;
28335;SDS011;15592;53.656;7.276;2023-03-11T08:42:41;1.40;;;0.38;;
28335;SDS011;15592;53.656;7.276;2023-03-11T08:45:07;0.30;;;0.30;;
28335;SDS011;15592;53.656;7.276;2023-03-11T08:47:34;0.90;;;0.40;;
28335;SDS011;15592;53.656;7.276;2023-03-11T08:50:01;0.22;;;0.22;;
28335;SDS011;15592;53.656;7.276;2023-03-11T08:52:29;0.68;;;0.50;;
28335;SDS011;15592;53.656;7.276;2023-03-11T08:54:55;1.83;;;0.70;;
28335;SDS011;15592;53.656;7.276;2023-03-11T08:57:21;2.03;;;0.50;;
28335;SDS011;15592;53.656;7.276;2023-03-11T08:59:47;1.73;;;0.40;;
28335;SDS011;15592;53.656;7.276;2023-03-11T09:02:12;0.68;;;0.40;;
28335;SDS011;15592;53.656;7.276;2023-03-11T09:04:38;1.55;;;0.75;;
28335;SDS011;15592;53.656;7.276;2023-03-11T09:07:03;3.83;;;0.73;;
28335;SDS011;15592;53.656;7.276;2023-03-11T09:09:29;2.28;;;0.60;;
28335;SDS011;15592;53.656;7.276;2023-03-11T09:11:55;1.85;;;0.60;;
28335;SDS011;15592;53.656;7.276;2023-03-11T09:14:20;1.77;;;0.57;;
28335;SDS011;15592;53.656;7.276;2023-03-11T09:16:46;1.27;;;0.60;;
28335;SDS011;15592;53.656;7.276;2023-03-11T09:19:11;2.03;;;0.80;;
28335;SDS011;15592;53.656;7.276;2023-03-11T09:21:37;0.88;;;0.60;;
28335;SDS011;15592;53.656;7.276;2023-03-11T09:24:03;2.90;;;0.60;;
28335;SDS011;15592;53.656;7.276;2023-03-11T09:26:30;1.67;;;0.50;;
28335;SDS011;15592;53.656;7.276;2023-03-11T09:28:56;0.85;;;0.40;;
28335;SDS011;15592;53.656;7.276;2023-03-11T09:31:21;1.58;;;0.50;;
28335;SDS011;15592;53.656;7.276;2023-03-11T09:33:47;1.90;;;0.50;;
28335;SDS011;15592;53.656;7.276;2023-03-11T09:36:15;0.68;;;0.50;;
28335;SDS011;15592;53.656;7.276;2023-03-11T09:38:42;1.52;;;0.73;;
28335;SDS011;15592;53.656;7.276;2023-03-11T09:48:56;0.88;;;0.30;;
28335;SDS011;15592;53.656;7.276;2023-03-11T09:51:37;0.40;;;0.40;;
28335;SDS011;15592;53.656;7.276;2023-03-11T09:54:10;0.38;;;0.30;;
28335;SDS011;15592;53.656;7.276;2023-03-11T09:56:37;0.50;;;0.35;;
28335;SDS011;15592;53.656;7.276;2023-03-11T09:59:06;0.50;;;0.30;;
28335;SDS011;15592;53.656;7.276;2023-03-11T10:01:43;0.65;;;0.40;;
28335;SDS011;15592;53.656;7.276;2023-03-11T10:04:27;0.43;;;0.30;;
28335;SDS011;15592;53.656;7.276;2023-03-11T10:07:01;0.75;;;0.45;;
28335;SDS011;15592;53.656;7.276;2023-03-11T10:12:03;0.90;;;0.45;;
28335;SDS011;15592;53.656;7.276;2023-03-11T10:17:59;0.80;;;0.60;;
28335;SDS011;15592;53.656;7.276;2023-03-11T10:22:54;0.95;;;0.45;;
28335;SDS011;15592;53.656;7.276;2023-03-11T10:28:34;1.58;;;0.63;;
28335;SDS011;15592;53.656;7.276;2023-03-11T10:31:05;1.00;;;0.50;;
28335;SDS011;15592;53.656;7.276;2023-03-11T10:33:49;2.13;;;0.75;;
28335;SDS011;15592;53.656;7.276;2023-03-11T10:36:20;2.22;;;0.50;;
28335;SDS011;15592;53.656;7.276;2023-03-11T10:38:50;3.20;;;0.80;;
28335;SDS011;15592;53.656;7.276;2023-03-11T10:41:29;3.92;;;0.88;;
28335;SDS011;15592;53.656;7.276;2023-03-11T10:46:39;1.75;;;0.55;;
28335;SDS011;15592;53.656;7.276;2023-03-11T10:49:10;1.95;;;0.57;;
28335;SDS011;15592;53.656;7.276;2023-03-11T10:51:39;1.83;;;0.50;;
28335;SDS011;15592;53.656;7.276;2023-03-11T10:54:08;1.35;;;0.68;;
28335;SDS011;15592;53.656;7.276;2023-03-11T10:59:53;2.58;;;0.60;;
28335;SDS011;15592;53.656;7.276;2023-03-11T11:02:30;1.55;;;0.60;;
28335;SDS011;15592;53.656;7.276;2023-03-11T11:07:33;1.45;;;0.40;;
28335;SDS011;15592;53.656;7.276;2023-03-11T11:15:49;0.45;;;0.30;;
28335;SDS011;15592;53.656;7.276;2023-03-11T11:18:18;2.05;;;0.93;;
28335;SDS011;15592;53.656;7.276;2023-03-11T11:21:01;0.63;;;0.30;;
28335;SDS011;15592;53.656;7.276;2023-03-11T11:23:37;1.27;;;0.40;;
28335;SDS011;15592;53.656;7.276;2023-03-11T11:26:26;3.33;;;0.60;;
28335;SDS011;15592;53.656;7.276;2023-03-11T11:31:31;2.22;;;0.65;;
28335;SDS011;15592;53.656;7.276;2023-03-11T11:33:57;3.50;;;0.85;;
28335;SDS011;15592;53.656;7.276;2023-03-11T11:36:24;1.75;;;0.77;;
28335;SDS011;15592;53.656;7.276;2023-03-11T11:38:57;1.95;;;0.63;;
28335;SDS011;15592;53.656;7.276;2023-03-11T11:41:24;0.93;;;0.60;;
28335;SDS011;15592;53.656;7.276;2023-03-11T11:43:53;2.40;;;0.70;;
28335;SDS011;15592;53.656;7.276;2023-03-11T11:46:33;3.50;;;0.70;;
28335;SDS011;15592;53.656;7.276;2023-03-11T11:49:12;4.03;;;0.70;;
28335;SDS011;15592;53.656;7.276;2023-03-11T11:52:02;5.43;;;0.65;;
28335;SDS011;15592;53.656;7.276;2023-03-11T11:57:15;6.85;;;0.98;;
28335;SDS011;15592;53.656;7.276;2023-03-11T11:59:44;2.13;;;0.73;;
28335;SDS011;15592;53.656;7.276;2023-03-11T12:02:31;4.47;;;1.00;;
28335;SDS011;15592;53.656;7.276;2023-03-11T12:15:52;7.65;;;1.10;;
28335;SDS011;15592;53.656;7.276;2023-03-11T12:21:11;3.38;;;0.82;;
28335;SDS011;15592;53.656;7.276;2023-03-11T12:27:05;1.25;;;0.57;;
28335;SDS011;15592;53.656;7.276;2023-03-11T12:29:44;1.48;;;0.50;;
28335;SDS011;15592;53.656;7.276;2023-03-11T12:32:22;2.72;;;1.17;;
28335;SDS011;15592;53.656;7.276;2023-03-11T12:35:00;6.18;;;1.25;;
28335;SDS011;15592;53.656;7.276;2023-03-11T12:37:28;2.92;;;0.70;;
28335;SDS011;15592;53.656;7.276;2023-03-11T12:39:54;2.53;;;0.70;;
28335;SDS011;15592;53.656;7.276;2023-03-11T12:42:20;2.83;;;0.77;;
28335;SDS011;15592;53.656;7.276;2023-03-11T12:44:49;1.70;;;0.70;;
28335;SDS011;15592;53.656;7.276;2023-03-11T12:47:16;2.67;;;0.90;;
28335;SDS011;15592;53.656;7.276;2023-03-11T12:49:47;3.75;;;0.80;;
28335;SDS011;15592;53.656;7.276;2023-03-11T12:52:20;2.53;;;0.80;;
28335;SDS011;15592;53.656;7.276;2023-03-11T12:57:49;2.03;;;0.60;;
28335;SDS011;15592;53.656;7.276;2023-03-11T13:00:25;1.08;;;0.50;;
28335;SDS011;15592;53.656;7.276;2023-03-11T13:05:44;2.67;;;0.60;;
28335;SDS011;15592;53.656;7.276;2023-03-11T13:08:43;3.10;;;1.08;;
28335;SDS011;15592;53.656;7.276;2023-03-11T13:11:26;1.73;;;0.68;;
28335;SDS011;15592;53.656;7.276;2023-03-11T13:14:08;3.50;;;0.88;;
28335;SDS011;15592;53.656;7.276;2023-03-11T13:16:36;3.05;;;0.60;;
28335;SDS011;15592;53.656;7.276;2023-03-11T13:21:50;2.35;;;0.98;;
28335;SDS011;15592;53.656;7.276;2023-03-11T13:29:28;2.25;;;0.70;;
28335;SDS011;15592;53.656;7.276;2023-03-11T13:32:17;4.30;;;1.05;;
28335;SDS011;15592;53.656;7.276;2023-03-11T13:40:45;5.07;;;1.02;;
28335;SDS011;15592;53.656;7.276;2023-03-11T13:43:13;2.88;;;0.90;;
28335;SDS011;15592;53.656;7.276;2023-03-11T13:45:41;3.53;;;1.00;;
28335;SDS011;15592;53.656;7.276;2023-03-11T13:48:43;7.78;;;1.05;;
28335;SDS011;15592;53.656;7.276;2023-03-11T13:51:32;3.08;;;0.80;;
28335;SDS011;15592;53.656;7.276;2023-03-11T13:54:07;2.65;;;1.20;;
28335;SDS011;15592;53.656;7.276;2023-03-11T13:56:44;2.20;;;0.80;;
28335;SDS011;15592;53.656;7.276;2023-03-11T13:59:29;1.75;;;0.93;;
28335;SDS011;15592;53.656;7.276;2023-03-11T14:02:11;2.70;;;0.70;;
28335;SDS011;15592;53.656;7.276;2023-03-11T14:04:46;1.65;;;0.70;;
28335;SDS011;15592;53.656;7.276;2023-03-11T14:07:25;5.30;;;1.20;;
28335;SDS011;15592;53.656;7.276;2023-03-11T14:12:35;5.45;;;0.82;;
28335;SDS011;15592;53.656;7.276;2023-03-11T14:15:03;5.43;;;0.82;;
28335;SDS011;15592;53.656;7.276;2023-03-11T14:17:31;2.97;;;0.80;;
28335;SDS011;15592;53.656;7.276;2023-03-11T14:22:35;3.63;;;1.15;;
28335;SDS011;15592;53.656;7.276;2023-03-11T14:25:05;1.80;;;0.70;;
28335;SDS011;15592;53.656;7.276;2023-03-11T14:27:32;3.10;;;0.68;;
28335;SDS011;15592;53.656;7.276;2023-03-11T14:29:58;0.70;;;0.60;;
28335;SDS011;15592;53.656;7.276;2023-03-11T14:32:25;2.25;;;1.05;;
28335;SDS011;15592;53.656;7.276;2023-03-11T14:34:55;3.63;;;1.00;;
28335;SDS011;15592;53.656;7.276;2023-03-11T14:40:00;1.73;;;0.93;;
28335;SDS011;15592;53.656;7.276;2023-03-11T14:42:35;4.82;;;1.00;;
28335;SDS011;15592;53.656;7.276;2023-03-11T14:50:14;9.10;;;1.73;;
28335;SDS011;15592;53.656;7.276;2023-03-11T14:52:42;6.60;;;1.35;;
28335;SDS011;15592;53.656;7.276;2023-03-11T14:55:15;4.55;;;1.38;;
28335;SDS011;15592;53.656;7.276;2023-03-11T14:57:48;5.00;;;1.30;;
28335;SDS011;15592;53.656;7.276;2023-03-11T15:00:20;3.95;;;1.27;;
28335;SDS011;15592;53.656;7.276;2023-03-11T15:05:34;4.28;;;1.48;;
28335;SDS011;15592;53.656;7.276;2023-03-11T15:08:02;4.97;;;1.20;;
28335;SDS011;15592;53.656;7.276;2023-03-11T15:10:31;3.47;;;0.95;;
28335;SDS011;15592;53.656;7.276;2023-03-11T15:13:16;6.53;;;1.20;;
28335;SDS011;15592;53.656;7.276;2023-03-11T15:15:41;3.05;;;1.02;;
28335;SDS011;15592;53.656;7.276;2023-03-11T15:18:18;7.03;;;1.40;;
28335;SDS011;15592;53.656;7.276;2023-03-11T15:23:38;5.73;;;1.37;;
28335;SDS011;15592;53.656;7.276;2023-03-11T15:29:13;5.78;;;1.02;;
28335;SDS011;15592;53.656;7.276;2023-03-11T15:31:41;6.70;;;1.25;;
28335;SDS011;15592;53.656;7.276;2023-03-11T15:39:13;5.85;;;1.70;;
28335;SDS011;15592;53.656;7.276;2023-03-11T15:41:57;8.45;;;1.80;;
28335;SDS011;15592;53.656;7.276;2023-03-11T15:44:29;9.48;;;1.55;;
28335;SDS011;15592;53.656;7.276;2023-03-11T15:47:38;6.57;;;1.58;;
28335;SDS011;15592;53.656;7.276;2023-03-11T15:49:57;10.48;;;1.73;;
28335;SDS011;15592;53.656;7.276;2023-03-11T15:52:30;4.88;;;1.20;;
28335;SDS011;15592;53.656;7.276;2023-03-11T15:54:55;5.75;;;1.50;;
28335;SDS011;15592;53.656;7.276;2023-03-11T15:57:22;9.65;;;1.92;;
28335;SDS011;15592;53.656;7.276;2023-03-11T15:59:52;3.97;;;1.30;;
28335;SDS011;15592;53.656;7.276;2023-03-11T16:02:21;5.72;;;1.50;;
28335;SDS011;15592;53.656;7.276;2023-03-11T16:04:49;5.38;;;1.38;;
28335;SDS011;15592;53.656;7.276;2023-03-11T16:07:16;6.50;;;1.65;;
28335;SDS011;15592;53.656;7.276;2023-03-11T16:09:41;7.05;;;1.58;;
28335;SDS011;15592;53.656;7.276;2023-03-11T16:12:14;3.97;;;1.80;;
28335;SDS011;15592;53.656;7.276;2023-03-11T16:14:45;4.25;;;1.40;;
28335;SDS011;15592;53.656;7.276;2023-03-11T16:17:11;5.13;;;1.50;;
28335;SDS011;15592;53.656;7.276;2023-03-11T16:19:43;5.13;;;1.33;;
28335;SDS011;15592;53.656;7.276;2023-03-11T16:22:17;4.28;;;1.25;;
28335;SDS011;15592;53.656;7.276;2023-03-11T16:24:45;3.83;;;1.50;;
28335;SDS011;15592;53.656;7.276;2023-03-11T16:27:14;3.08;;;1.23;;
28335;SDS011;15592;53.656;7.276;2023-03-11T16:29:42;3.25;;;1.27;;
28335;SDS011;15592;53.656;7.276;2023-03-11T16:32:09;2.05;;;1.10;;
28335;SDS011;15592;53.656;7.276;2023-03-11T16:34:35;2.50;;;1.02;;
28335;SDS011;15592;53.656;7.276;2023-03-11T16:37:04;1.70;;;1.05;;
28335;SDS011;15592;53.656;7.276;2023-03-11T16:39:31;2.67;;;1.05;;
28335;SDS011;15592;53.656;7.276;2023-03-11T16:41:58;3.42;;;1.10;;
28335;SDS011;15592;53.656;7.276;2023-03-11T16:44:24;2.05;;;1.10;;
28335;SDS011;15592;53.656;7.276;2023-03-11T16:46:49;3.10;;;1.10;;
28335;SDS011;15592;53.656;7.276;2023-03-11T16:49:15;3.42;;;1.15;;